HTMU

Musoma Airport

Musoma, Tanzania
METAR HTMU 162100Z 00000KT 9999 FEW020CB BKN090 22/17 Q1018
Observed Flight Rules
Dec-16 @ 21:00 UTC (3 hours ago) Visual Flight Rules
Wind Visibility Clouds
Calm 10,000+ meters
  • Few at 2,000' AGL
  • Broken at 9,000' AGL
Temperatures Readings
Current 22°C / 72°F
Dewpoint 17°C / 63°F
Humidity 73%
Altimeter 30.06" Hg
Pressure 1018 hPa
Elevation 1147
METAR HTMU 162100Z 00000KT 9999 FEW020CB BKN090 22/17 Q1018
Observed Flight Rules
Dec-16 @ 21:00 UTC
(3 hours ago)
VFR
Wind Visibility
Calm 10,000+ meters
Clouds
  • Few at 2,000' AGL
  • Broken at 9,000' AGL
Temperature Dewpoint
22°C / 72°F 17°C / 63°F
Humidity Altimeter Pressure
73% 30.06" Hg 1018 hPa